createdAt,value
2023-01-17T00:01:28.976Z,59.30
2023-01-17T00:04:35.635Z,64.67
2023-01-17T00:07:31.556Z,62.45
2023-01-17T00:10:02.695Z,62.10
2023-01-17T00:12:33.424Z,63.23
2023-01-17T00:15:08.544Z,63.05
2023-01-17T00:17:41.224Z,63.50
2023-01-17T00:20:31.953Z,59.55
2023-01-17T00:23:24.685Z,63.00
2023-01-17T00:26:03.674Z,60.43
2023-01-17T00:28:40.116Z,60.80
2023-01-17T00:31:26.733Z,62.00
2023-01-17T00:34:09.657Z,57.90
2023-01-17T00:36:38.555Z,59.70
2023-01-17T00:39:12.166Z,58.65
2023-01-17T00:42:08.696Z,55.55
2023-01-17T00:45:14.182Z,58.40
2023-01-17T00:48:21.166Z,55.20
2023-01-17T00:51:31.135Z,55.43
2023-01-17T00:54:24.374Z,57.45
2023-01-17T00:57:12.627Z,57.77
2023-01-17T01:00:19.828Z,55.70
2023-01-17T01:03:34.693Z,61.90
2023-01-17T01:06:45.972Z,57.70
2023-01-17T01:09:39.152Z,55.40
2023-01-17T01:12:34.930Z,60.40
2023-01-17T01:15:27.103Z,55.90
2023-01-17T01:18:22.134Z,58.83
2023-01-17T01:21:09.812Z,57.60
2023-01-17T01:23:58.710Z,54.05
2023-01-17T01:26:47.287Z,52.87
2023-01-17T01:29:36.395Z,55.35
2023-01-17T01:32:31.813Z,55.50
2023-01-17T01:35:02.546Z,56.70
2023-01-17T01:37:33.056Z,54.95
2023-01-17T01:40:14.025Z,58.05
2023-01-17T01:42:49.539Z,51.27
2023-01-17T01:45:21.009Z,48.75
2023-01-17T01:47:55.262Z,55.30
2023-01-17T01:54:20.241Z,49.45
2023-01-17T01:57:22.809Z,56.63
2023-01-17T02:00:30.954Z,51.73
2023-01-17T02:03:22.072Z,51.60
2023-01-17T02:06:05.539Z,51.50
2023-01-17T02:09:04.715Z,52.75
2023-01-17T02:12:33.791Z,54.63
2023-01-17T02:21:46.960Z,55.67
2023-01-17T02:28:41.212Z,64.87
2023-01-17T02:31:37.466Z,61.80
2023-01-17T02:34:36.114Z,64.33
2023-01-17T02:37:31.717Z,64.05
2023-01-17T02:43:50.904Z,59.33
2023-01-17T02:46:58.270Z,58.65
2023-01-17T02:49:51.079Z,59.77
2023-01-17T03:14:45.349Z,52.67
2023-01-17T03:26:01.748Z,54.05
2023-01-17T03:29:22.749Z,55.40
2023-01-17T03:33:00.968Z,54.10
2023-01-17T03:36:44.274Z,52.10
2023-01-17T03:43:39.366Z,48.75
2023-01-17T03:46:56.231Z,53.27
2023-01-17T03:50:01.216Z,56.23
2023-01-17T03:56:08.583Z,54.20
2023-01-17T04:02:44.461Z,56.80
2023-01-17T04:05:53.937Z,61.42
2023-01-17T04:12:17.370Z,59.90
2023-01-17T04:18:45.116Z,59.55
2023-01-17T04:22:02.221Z,57.25
2023-01-17T04:25:01.033Z,57.80
2023-01-17T04:31:42.262Z,61.50
2023-01-17T04:34:31.275Z,58.90
2023-01-17T05:31:47.912Z,56.68
2023-01-17T05:36:37.012Z,52.05
2023-01-17T05:37:44.391Z,49.75
2023-01-17T05:44:05.030Z,52.40
2023-01-17T05:49:25.909Z,52.60
2023-01-17T05:51:57.426Z,53.50
2023-01-17T05:54:33.354Z,55.45
2023-01-17T05:57:20.965Z,55.75
2023-01-17T05:59:58.370Z,54.05
2023-01-17T06:02:39.805Z,54.05
2023-01-17T06:05:19.395Z,52.65
2023-01-17T06:07:51.809Z,59.23
2023-01-17T06:10:22.086Z,56.85
2023-01-17T06:13:01.686Z,60.40
2023-01-17T06:15:31.394Z,56.45
2023-01-17T06:18:07.000Z,52.35
2023-01-17T06:20:40.873Z,57.40
2023-01-17T06:23:12.326Z,55.30
2023-01-17T06:25:50.410Z,58.70
2023-01-17T06:28:31.487Z,65.25
2023-01-17T06:31:10.120Z,62.50
2023-01-17T06:33:39.632Z,65.80
2023-01-17T06:36:12.520Z,58.50
2023-01-17T06:38:44.695Z,62.50
2023-01-17T06:41:26.678Z,61.63
2023-01-17T06:43:58.222Z,59.23
2023-01-17T06:46:27.964Z,69.33
2023-01-17T06:49:18.895Z,64.00
2023-01-17T06:51:48.541Z,57.20
2023-01-17T06:54:19.806Z,61.00
2023-01-17T06:56:55.864Z,55.30
2023-01-17T06:59:43.055Z,57.70
2023-01-17T07:02:15.156Z,56.70
2023-01-17T07:04:45.922Z,62.00
2023-01-17T07:07:15.768Z,56.60
2023-01-17T07:09:52.177Z,59.27
2023-01-17T07:12:29.134Z,55.25
2023-01-17T07:15:01.949Z,57.70
2023-01-17T07:17:32.459Z,59.95
2023-01-17T07:20:09.480Z,62.35
2023-01-17T07:22:47.536Z,57.45
2023-01-17T07:25:19.992Z,58.05
2023-01-17T07:27:52.810Z,63.70
2023-01-17T07:30:23.945Z,61.50
2023-01-17T07:33:05.522Z,60.15
2023-01-17T07:35:36.226Z,65.80
2023-01-17T07:38:13.612Z,61.80
2023-01-17T07:40:44.198Z,60.40
2023-01-17T07:43:17.497Z,61.90
2023-01-17T07:45:50.117Z,58.50
2023-01-17T07:48:20.787Z,59.53
2023-01-17T07:50:57.429Z,56.65
2023-01-17T07:53:32.175Z,57.15
2023-01-17T07:56:02.501Z,53.67
2023-01-17T07:58:35.093Z,52.87
2023-01-17T08:01:06.418Z,55.90
2023-01-17T08:03:39.302Z,53.70
2023-01-17T08:06:15.582Z,55.50
2023-01-17T08:08:46.305Z,55.43
2023-01-17T08:11:15.701Z,55.40
2023-01-17T08:13:45.425Z,54.07
2023-01-17T08:16:19.809Z,56.43
2023-01-17T08:18:49.082Z,55.45
2023-01-17T08:21:18.461Z,57.53
2023-01-17T08:23:48.629Z,54.30
2023-01-17T08:26:22.704Z,56.50
2023-01-17T08:28:55.812Z,57.17
2023-01-17T08:31:25.174Z,53.30
2023-01-17T08:33:59.932Z,53.97
2023-01-17T08:36:30.627Z,57.03
2023-01-17T08:39:01.696Z,54.10
2023-01-17T08:41:32.238Z,54.03
2023-01-17T08:44:03.957Z,53.15
2023-01-17T08:46:33.243Z,57.10
2023-01-17T08:49:02.668Z,53.20
2023-01-17T08:51:32.484Z,50.83
2023-01-17T08:54:01.930Z,53.90
2023-01-17T08:56:31.296Z,51.70
2023-01-17T08:59:02.433Z,52.77
2023-01-17T09:01:41.242Z,52.75
2023-01-17T09:04:12.080Z,52.37
2023-01-17T09:06:43.642Z,50.33
2023-01-17T09:09:13.346Z,56.45
2023-01-17T09:11:44.476Z,49.30
2023-01-17T09:14:17.676Z,51.70
2023-01-17T09:16:50.118Z,53.43
2023-01-17T09:19:19.514Z,55.30
2023-01-17T09:21:50.350Z,49.23
2023-01-17T09:24:19.815Z,50.97
2023-01-17T09:26:49.166Z,53.10
2023-01-17T09:29:19.611Z,54.20
2023-01-17T09:31:50.596Z,50.53
2023-01-17T09:34:20.671Z,50.10
2023-01-17T09:36:51.884Z,54.00
2023-01-17T09:39:22.507Z,53.67
2023-01-17T09:41:58.165Z,53.63
2023-01-17T09:44:35.533Z,52.20
2023-01-17T09:47:17.630Z,49.50
2023-01-17T09:49:47.209Z,48.42
2023-01-17T09:52:18.706Z,47.60
2023-01-17T09:54:48.361Z,52.23
2023-01-17T09:57:26.315Z,46.58
2023-01-17T10:00:03.469Z,47.63
2023-01-17T10:02:55.915Z,48.33
2023-01-17T10:05:39.635Z,48.47
2023-01-17T10:08:15.126Z,44.45
2023-01-17T10:10:47.256Z,43.95
2023-01-17T10:13:31.741Z,46.08
2023-01-17T10:16:09.143Z,41.45
2023-01-17T10:18:51.995Z,42.03
2023-01-17T10:21:26.683Z,39.70
2023-01-17T10:24:15.789Z,41.85
2023-01-17T10:26:46.330Z,42.43
2023-01-17T10:29:19.985Z,46.90
2023-01-17T10:31:53.689Z,46.18
2023-01-17T10:34:26.150Z,42.70
2023-01-17T10:37:03.819Z,43.40
2023-01-17T10:39:35.995Z,47.80
2023-01-17T10:42:14.640Z,44.90
2023-01-17T10:44:54.842Z,52.73
2023-01-17T10:47:28.222Z,51.30
2023-01-17T10:50:03.203Z,44.88
2023-01-17T10:52:43.234Z,44.65
2023-01-17T10:55:19.256Z,45.43
2023-01-17T10:57:52.628Z,41.75
2023-01-17T11:00:31.152Z,44.42
2023-01-17T11:03:02.868Z,43.45
2023-01-17T11:09:00.543Z,47.58
2023-01-17T11:12:14.454Z,48.75
2023-01-17T11:15:23.779Z,49.38
2023-01-17T11:18:14.705Z,45.95
2023-01-17T11:21:14.415Z,48.73
2023-01-17T11:24:23.419Z,47.60
2023-01-17T11:31:08.354Z,43.87
2023-01-17T11:34:07.783Z,39.80
2023-01-17T11:37:21.636Z,37.38
2023-01-17T11:41:05.126Z,38.63
2023-01-17T11:45:04.585Z,31.90
2023-01-17T13:50:08.501Z,29.70
2023-01-17T14:53:29.273Z,32.58
2023-01-17T14:57:02.388Z,33.50
2023-01-17T15:41:03.747Z,33.15
2023-01-17T17:16:23.684Z,39.48
2023-01-17T17:37:44.856Z,43.13
2023-01-17T17:47:55.830Z,42.60
2023-01-17T17:51:13.775Z,39.18
2023-01-17T17:55:09.752Z,37.15
2023-01-17T18:01:55.045Z,38.30
2023-01-17T21:22:44.610Z,58.90
